createdAt,value
2022-11-30T00:00:47.098Z,69.5714
2022-11-30T00:01:40.836Z,69.5714
2022-11-30T00:02:41.046Z,69.5
2022-11-30T00:03:40.920Z,69.4286
2022-11-30T00:04:40.933Z,69.4286
2022-11-30T00:04:48.703Z,69.3571
2022-11-30T00:05:48.542Z,69.3571
2022-11-30T00:06:05.432Z,69.3571
2022-11-30T00:07:05.453Z,69.2857
2022-11-30T00:08:05.486Z,69.2143
2022-11-30T00:09:05.518Z,69.2143
2022-11-30T00:10:05.554Z,69.2143
2022-11-30T00:11:05.588Z,69.2143
2022-11-30T00:12:05.622Z,69.2143
2022-11-30T00:13:05.650Z,69.2143
2022-11-30T00:14:05.686Z,69.2143
2022-11-30T00:15:05.716Z,69.2143
2022-11-30T00:16:05.761Z,69.1429
2022-11-30T00:17:05.929Z,69.1429
2022-11-30T00:17:56.586Z,69.1429
2022-11-30T00:18:56.667Z,69.1429
2022-11-30T00:19:56.643Z,69.2143
2022-11-30T00:20:56.672Z,69.2143
2022-11-30T00:21:56.721Z,69.2143
2022-11-30T00:22:56.752Z,69.1429
2022-11-30T00:23:56.797Z,69.1429
2022-11-30T00:24:56.842Z,69.1429
2022-11-30T00:25:56.880Z,69.2143
2022-11-30T00:26:56.912Z,69.2857
2022-11-30T00:27:56.938Z,69.4286
2022-11-30T00:28:56.961Z,69.5
2022-11-30T00:29:57.005Z,69.5714
2022-11-30T00:30:57.079Z,69.7857
2022-11-30T00:31:57.058Z,69.7857
2022-11-30T00:32:57.101Z,69.7143
2022-11-30T00:33:57.123Z,69.7143
2022-11-30T00:34:57.162Z,69.7857
2022-11-30T00:35:57.210Z,69.7143
2022-11-30T00:36:57.230Z,69.7857
2022-11-30T00:37:57.263Z,69.7857
2022-11-30T00:38:57.302Z,69.7143
2022-11-30T00:39:57.334Z,69.7143
2022-11-30T00:40:57.366Z,69.6429
2022-11-30T00:41:57.405Z,69.6429
2022-11-30T00:42:57.433Z,69.5714
2022-11-30T00:43:57.459Z,69.6429
2022-11-30T00:44:57.495Z,69.8571
2022-11-30T00:45:57.622Z,69.8571
2022-11-30T00:46:57.550Z,69.7143
2022-11-30T00:47:57.575Z,69.6429
2022-11-30T00:48:57.610Z,69.5
2022-11-30T00:49:57.636Z,69.3571
2022-11-30T00:50:57.673Z,69.2857
2022-11-30T00:51:57.794Z,69.3571
2022-11-30T00:52:57.735Z,69.3571
2022-11-30T00:53:57.760Z,69.2857
2022-11-30T00:54:57.787Z,69.2857
2022-11-30T00:55:57.815Z,69.3571
2022-11-30T00:56:57.843Z,69.2857
2022-11-30T00:57:57.883Z,69.2857
2022-11-30T00:58:57.908Z,69.2857
2022-11-30T00:59:57.936Z,69.2143
2022-11-30T01:00:57.996Z,69.2143
2022-11-30T01:01:57.977Z,69.2143
2022-11-30T01:02:58.016Z,69.1429
2022-11-30T01:03:58.054Z,69.2143
2022-11-30T01:04:58.083Z,69.2143
2022-11-30T01:05:58.117Z,69.1429
2022-11-30T01:06:58.145Z,69.1429
2022-11-30T01:07:58.266Z,69.2143
2022-11-30T01:08:58.190Z,69.1429
2022-11-30T01:09:58.225Z,69.1429
2022-11-30T01:10:58.249Z,69.1429
2022-11-30T01:11:58.280Z,69.1429
2022-11-30T01:12:58.316Z,69.1429
2022-11-30T01:13:58.350Z,69.0714
2022-11-30T01:14:58.381Z,69.1429
2022-11-30T01:15:58.436Z,69
2022-11-30T01:16:58.448Z,69
2022-11-30T01:17:58.477Z,68.9286
2022-11-30T01:18:58.508Z,69
2022-11-30T01:19:58.536Z,69.0714
2022-11-30T01:20:58.574Z,69
2022-11-30T01:21:58.595Z,69.0714
2022-11-30T01:22:58.635Z,69
2022-11-30T01:23:58.658Z,69.0714
2022-11-30T01:24:58.695Z,69.0714
2022-11-30T01:25:58.721Z,68.9286
2022-11-30T01:26:58.766Z,68.7857
2022-11-30T01:27:58.806Z,68.7143
2022-11-30T01:28:58.837Z,68.6429
2022-11-30T01:29:58.868Z,68.6429
2022-11-30T01:30:33.453Z,68.5
2022-11-30T01:31:33.413Z,68.4286
2022-11-30T01:32:33.453Z,68.5
2022-11-30T01:33:33.487Z,68.5
2022-11-30T01:34:33.524Z,68.5
2022-11-30T01:35:33.569Z,68.6429
2022-11-30T01:36:33.580Z,68.7857
2022-11-30T01:37:33.627Z,68.6429
2022-11-30T01:38:33.655Z,68.6429
2022-11-30T01:39:33.695Z,68.6429
2022-11-30T01:40:33.727Z,68.7143
2022-11-30T01:41:33.752Z,68.6429
2022-11-30T01:42:33.777Z,68.5
2022-11-30T01:43:33.810Z,68.5714
2022-11-30T01:44:33.847Z,68.5
2022-11-30T01:45:33.886Z,68.5714
2022-11-30T01:46:33.978Z,68.5
2022-11-30T01:47:33.950Z,68.6429
2022-11-30T01:48:33.989Z,68.5
2022-11-30T01:49:34.031Z,68.3571
2022-11-30T01:50:34.058Z,68.3571
2022-11-30T01:51:34.084Z,68.4286
2022-11-30T01:52:34.133Z,68.3571
2022-11-30T01:53:34.160Z,68.2857
2022-11-30T01:54:34.190Z,68.2143
2022-11-30T01:55:34.218Z,68.4286
2022-11-30T01:56:34.259Z,68.4286
2022-11-30T01:57:34.284Z,68.5
2022-11-30T01:58:34.314Z,68.4286
2022-11-30T01:59:34.352Z,68.5
2022-11-30T02:00:34.386Z,68.3571
2022-11-30T02:01:34.461Z,68.2143
2022-11-30T02:02:34.491Z,68.2857
2022-11-30T02:03:34.467Z,68.2857
2022-11-30T02:04:34.499Z,68.2857
2022-11-30T02:05:34.514Z,68.2143
2022-11-30T02:06:34.548Z,68.1429
2022-11-30T02:07:34.752Z,68.2143
2022-11-30T02:08:34.796Z,68.2143
2022-11-30T02:09:34.656Z,68.2857
2022-11-30T02:10:34.686Z,68.1429
2022-11-30T02:11:34.717Z,68.0714
2022-11-30T02:12:34.754Z,68.1429
2022-11-30T02:13:34.788Z,68.0714
2022-11-30T02:14:34.818Z,68
2022-11-30T02:15:34.914Z,68
2022-11-30T02:16:34.873Z,67.9286
2022-11-30T02:17:34.912Z,67.9286
2022-11-30T02:18:34.936Z,68
2022-11-30T02:19:34.961Z,68.0714
2022-11-30T02:20:34.999Z,67.9286
2022-11-30T02:21:35.041Z,68.0714
2022-11-30T02:22:35.073Z,68.1429
2022-11-30T02:23:40.961Z,68.0714
2022-11-30T02:24:35.140Z,67.9286
2022-11-30T02:25:35.169Z,68
2022-11-30T02:26:35.204Z,68.0714
2022-11-30T02:27:35.238Z,68
2022-11-30T02:28:35.266Z,68.1429
2022-11-30T02:29:35.310Z,68.1429
2022-11-30T02:30:35.340Z,68.0714
2022-11-30T02:31:35.378Z,68.0714
2022-11-30T02:32:35.410Z,68
2022-11-30T02:33:35.433Z,67.9286
2022-11-30T02:34:35.467Z,67.9286
2022-11-30T02:35:35.494Z,68
2022-11-30T02:36:35.534Z,68
2022-11-30T02:37:35.558Z,67.9286
2022-11-30T02:38:35.591Z,67.9286
2022-11-30T02:39:35.625Z,68.0714
2022-11-30T02:40:35.664Z,68.0714
2022-11-30T02:41:38.029Z,68.2143
2022-11-30T02:42:35.713Z,68.0714
2022-11-30T02:43:35.747Z,68.0714
2022-11-30T02:44:35.783Z,68.1429
2022-11-30T02:45:35.813Z,68.2143
2022-11-30T02:46:35.888Z,68.2143
2022-11-30T02:47:35.875Z,68.1429
2022-11-30T02:48:35.915Z,68.2143
2022-11-30T02:49:35.946Z,68.0714
2022-11-30T02:50:35.979Z,68.0714
2022-11-30T02:51:36.006Z,68.1429
2022-11-30T02:52:36.047Z,68.1429
2022-11-30T02:53:36.080Z,68.1429
2022-11-30T02:54:36.095Z,68
2022-11-30T02:55:36.120Z,68.0714
2022-11-30T02:56:36.149Z,68.0714
2022-11-30T02:57:36.186Z,68.1429
2022-11-30T02:58:36.219Z,68.2143
2022-11-30T02:59:36.256Z,68.2143
2022-11-30T03:00:36.281Z,68.2143
2022-11-30T03:01:36.379Z,68.1429
2022-11-30T03:02:36.387Z,68.1429
2022-11-30T03:03:36.378Z,68.0714
2022-11-30T03:04:36.415Z,68.1429
2022-11-30T03:05:36.445Z,68.2143
2022-11-30T03:06:36.477Z,68.0714
2022-11-30T03:07:36.563Z,68.0714
2022-11-30T03:08:36.533Z,68.1429
2022-11-30T03:09:36.563Z,68.1429
2022-11-30T03:10:36.595Z,68.0714
2022-11-30T03:11:36.632Z,68.1429
2022-11-30T03:12:36.660Z,68.1429
2022-11-30T03:13:36.682Z,68.1429
2022-11-30T03:14:36.720Z,68.1429
2022-11-30T03:15:36.791Z,68.1429
2022-11-30T03:16:36.778Z,68.1429
2022-11-30T03:17:36.807Z,68
2022-11-30T03:18:36.850Z,68
2022-11-30T03:19:36.884Z,68
2022-11-30T03:20:36.911Z,67.9286
2022-11-30T03:21:36.939Z,67.9286
2022-11-30T03:22:36.976Z,68
2022-11-30T03:23:37.013Z,68
2022-11-30T03:24:37.039Z,68
2022-11-30T03:25:37.063Z,68
2022-11-30T03:26:37.089Z,68
2022-11-30T03:27:37.124Z,68
2022-11-30T03:28:37.167Z,67.9286
2022-11-30T03:29:37.189Z,67.9286
2022-11-30T03:30:37.227Z,67.9286
2022-11-30T03:31:37.251Z,68
2022-11-30T03:32:37.288Z,67.8571
2022-11-30T03:33:37.302Z,67.9286
2022-11-30T03:34:37.338Z,68
2022-11-30T03:35:37.368Z,68.0714
2022-11-30T03:36:37.404Z,68.0714
2022-11-30T03:37:37.451Z,68.1429
2022-11-30T03:38:37.474Z,68.0714
2022-11-30T03:39:37.498Z,68.1429
2022-11-30T03:40:37.537Z,68.1429
2022-11-30T03:41:37.572Z,68.0714
2022-11-30T03:42:37.601Z,68.1429
2022-11-30T03:43:37.632Z,68.1429
2022-11-30T03:44:37.656Z,68.0714
2022-11-30T03:45:37.693Z,68
2022-11-30T03:46:37.769Z,67.9286
2022-11-30T03:47:37.757Z,68
2022-11-30T03:48:37.784Z,68
2022-11-30T03:49:37.815Z,68.0714
2022-11-30T03:50:37.859Z,68
2022-11-30T03:51:37.875Z,67.9286
2022-11-30T03:52:37.916Z,67.9286
2022-11-30T03:53:37.945Z,67.9286
2022-11-30T03:54:37.973Z,67.9286
2022-11-30T03:55:37.998Z,67.9286
2022-11-30T03:56:38.036Z,67.9286
2022-11-30T03:57:38.073Z,68
2022-11-30T03:58:38.107Z,67.9286
2022-11-30T03:59:38.138Z,67.9286
2022-11-30T04:00:38.173Z,67.9286
2022-11-30T04:01:38.282Z,67.9286
2022-11-30T04:02:44.286Z,67.9286
2022-11-30T04:03:38.270Z,67.9286
2022-11-30T04:04:38.298Z,67.7857
2022-11-30T04:05:38.324Z,67.9286
2022-11-30T04:06:38.349Z,67.8571
2022-11-30T04:07:38.446Z,67.9286
2022-11-30T04:08:38.414Z,67.8571
2022-11-30T04:09:38.447Z,68
2022-11-30T04:10:38.465Z,67.8571
2022-11-30T04:11:38.506Z,67.8571
2022-11-30T04:12:38.554Z,67.8571
2022-11-30T04:13:38.574Z,67.9286
2022-11-30T04:14:38.641Z,67.8571
2022-11-30T04:15:38.669Z,67.7857
2022-11-30T04:16:38.674Z,67.7857
2022-11-30T04:17:38.708Z,67.7857
2022-11-30T04:18:38.753Z,67.7143
2022-11-30T04:19:38.780Z,67.6429
2022-11-30T04:20:40.518Z,67.7143
2022-11-30T04:21:38.842Z,67.6429
2022-11-30T04:22:38.871Z,67.7143
2022-11-30T04:23:38.917Z,67.7143
2022-11-30T04:24:38.946Z,67.7143
2022-11-30T04:25:38.971Z,67.6429
2022-11-30T04:26:39.003Z,67.7143
2022-11-30T04:27:39.038Z,67.6429
2022-11-30T04:28:39.072Z,67.6429
2022-11-30T04:29:39.107Z,67.6429
2022-11-30T04:30:39.133Z,67.6429
2022-11-30T04:31:39.189Z,67.5
2022-11-30T04:32:39.195Z,67.5
2022-11-30T04:33:39.236Z,67.5
2022-11-30T04:34:39.265Z,67.5
2022-11-30T04:35:39.293Z,67.5
2022-11-30T04:36:39.338Z,67.6429
2022-11-30T04:37:39.364Z,67.6429
2022-11-30T04:38:39.397Z,67.5
2022-11-30T04:39:39.425Z,67.5714
2022-11-30T04:40:39.459Z,67.6429
2022-11-30T04:41:39.489Z,67.6429
2022-11-30T04:42:39.523Z,67.7143
2022-11-30T04:43:39.557Z,67.5714
2022-11-30T04:44:39.594Z,67.5
2022-11-30T04:45:39.614Z,67.3571
2022-11-30T04:46:39.698Z,67.3571
2022-11-30T04:47:39.674Z,67.4286
2022-11-30T04:48:39.711Z,67.5
2022-11-30T04:49:39.745Z,67.5714
2022-11-30T04:50:39.783Z,67.4286
2022-11-30T04:51:39.799Z,67.5
2022-11-30T04:52:39.836Z,67.4286
2022-11-30T04:53:39.874Z,67.4286
2022-11-30T04:54:39.909Z,67.5
2022-11-30T04:55:39.940Z,67.5
2022-11-30T04:56:39.969Z,67.5714
2022-11-30T04:57:40.004Z,67.4286
2022-11-30T04:58:40.091Z,67.4286
2022-11-30T04:59:40.078Z,67.5
2022-11-30T05:00:40.088Z,67.5
2022-11-30T05:01:40.163Z,67.5714
2022-11-30T05:02:40.166Z,67.3571
2022-11-30T05:03:40.191Z,67.2857
2022-11-30T05:04:40.286Z,67.2857
2022-11-30T05:05:40.259Z,67.3571
2022-11-30T05:06:40.288Z,67.3571
2022-11-30T05:07:40.400Z,67.2143
2022-11-30T05:08:40.360Z,67.2143
2022-11-30T05:09:40.388Z,67.2143
2022-11-30T05:10:40.417Z,67
2022-11-30T05:11:40.446Z,67.1429
2022-11-30T05:12:40.494Z,67.2143
2022-11-30T05:13:40.530Z,67.2857
2022-11-30T05:14:40.564Z,67.2143
2022-11-30T05:15:40.592Z,67.1429
2022-11-30T05:16:40.713Z,67.1429
2022-11-30T05:17:40.683Z,67.1429
2022-11-30T05:18:40.716Z,67
2022-11-30T05:19:40.751Z,66.9286
2022-11-30T05:20:40.772Z,66.8571
2022-11-30T05:21:45.414Z,66.8571
2022-11-30T05:22:40.843Z,66.8571
2022-11-30T05:23:40.874Z,66.7857
2022-11-30T05:24:40.914Z,66.7857
2022-11-30T05:25:40.944Z,66.9286
2022-11-30T05:26:40.971Z,67
2022-11-30T05:27:40.996Z,66.8571
2022-11-30T05:28:41.018Z,67
2022-11-30T05:29:41.052Z,66.8571
2022-11-30T05:30:41.083Z,66.8571
2022-11-30T05:31:41.193Z,67
2022-11-30T05:32:41.145Z,66.9286
2022-11-30T05:33:41.180Z,66.9286
2022-11-30T05:34:50.061Z,67
2022-11-30T05:35:41.240Z,67
2022-11-30T05:36:41.270Z,67
2022-11-30T05:37:41.297Z,66.9286
2022-11-30T05:38:41.331Z,66.9286
2022-11-30T05:39:41.368Z,67
2022-11-30T05:40:41.405Z,67.0714
2022-11-30T05:41:41.435Z,67
2022-11-30T05:42:41.471Z,67
2022-11-30T05:43:41.498Z,66.9286
2022-11-30T05:44:41.518Z,66.8571
2022-11-30T05:45:41.555Z,66.8571
2022-11-30T05:46:41.683Z,66.7857
2022-11-30T05:47:41.618Z,66.7857
2022-11-30T05:48:41.657Z,66.7857
2022-11-30T05:49:41.689Z,66.8571
2022-11-30T05:50:41.719Z,66.8571
2022-11-30T05:51:41.753Z,66.7143
2022-11-30T05:52:41.777Z,66.7857
2022-11-30T05:53:41.811Z,66.7143
2022-11-30T05:54:41.849Z,66.6429
2022-11-30T05:55:41.876Z,66.7143
2022-11-30T05:56:41.908Z,66.7857
2022-11-30T05:57:41.940Z,66.7143
2022-11-30T05:58:41.971Z,66.6429
2022-11-30T05:59:42.002Z,66.7143
2022-11-30T06:00:42.033Z,66.7143
2022-11-30T06:01:42.143Z,66.5714
2022-11-30T06:02:42.187Z,66.6429
2022-11-30T06:03:42.126Z,66.6429
2022-11-30T06:04:42.154Z,66.5714
2022-11-30T06:05:42.190Z,66.5714
2022-11-30T06:06:42.231Z,66.5714
2022-11-30T06:07:42.330Z,66.6429
2022-11-30T06:08:42.295Z,66.6429
2022-11-30T06:09:42.325Z,66.7143
2022-11-30T06:10:42.362Z,66.5714
2022-11-30T06:11:42.389Z,66.6429
2022-11-30T06:12:42.416Z,66.6429
2022-11-30T06:13:42.453Z,66.6429
2022-11-30T06:14:42.478Z,66.5714
2022-11-30T06:15:42.511Z,66.5
2022-11-30T06:16:42.568Z,66.5714
2022-11-30T06:17:42.570Z,66.5
2022-11-30T06:18:42.608Z,66.5714
2022-11-30T06:19:42.658Z,66.5714
2022-11-30T06:20:42.664Z,66.7143
2022-11-30T06:21:42.692Z,66.7143
2022-11-30T06:22:42.725Z,66.6429
2022-11-30T06:23:42.751Z,66.6429
2022-11-30T06:24:42.773Z,66.6429
2022-11-30T06:25:42.799Z,66.7143
2022-11-30T06:26:42.833Z,66.6429
2022-11-30T06:27:42.861Z,66.6429
2022-11-30T06:28:47.679Z,66.5
2022-11-30T06:29:42.921Z,66.5714
2022-11-30T06:30:42.952Z,66.6429
2022-11-30T06:31:42.993Z,66.5714
2022-11-30T06:32:43.015Z,66.5
2022-11-30T06:33:43.050Z,66.2857
2022-11-30T06:34:43.081Z,66.2143
2022-11-30T06:35:43.116Z,66.2857
2022-11-30T06:36:43.133Z,66.3571
2022-11-30T06:37:43.174Z,66.5
2022-11-30T06:38:43.201Z,66.5
2022-11-30T06:40:05.347Z,66.4286
2022-11-30T06:40:43.254Z,66.2143
2022-11-30T06:41:43.287Z,66.1429
2022-11-30T06:42:43.310Z,66.1429
2022-11-30T06:43:43.348Z,66.2857
2022-11-30T06:44:43.384Z,66.2857
2022-11-30T06:45:43.455Z,66.2143
2022-11-30T06:46:43.446Z,66.2143
2022-11-30T06:47:43.470Z,66.1429
2022-11-30T06:48:43.506Z,66.2857
2022-11-30T06:49:43.538Z,66.2143
2022-11-30T06:50:49.730Z,66.2857
2022-11-30T06:51:43.604Z,66.1429
2022-11-30T06:52:43.638Z,66.0714
2022-11-30T06:53:43.664Z,66
2022-11-30T06:54:43.768Z,66
2022-11-30T06:55:43.723Z,66.1429
2022-11-30T06:56:43.754Z,66.0714
2022-11-30T06:57:43.776Z,66.0714
2022-11-30T06:58:43.815Z,66.0714
2022-11-30T06:59:43.837Z,66.2857
2022-11-30T07:00:43.929Z,66.2857
2022-11-30T07:01:43.897Z,66.2143
2022-11-30T07:02:43.927Z,66.2143
2022-11-30T07:03:44.060Z,66.2143
2022-11-30T07:04:43.991Z,66.2857
2022-11-30T07:05:44.017Z,66.2857
2022-11-30T07:06:44.046Z,66.1429
2022-11-30T07:07:44.126Z,66.1429
2022-11-30T07:08:44.110Z,66.1429
2022-11-30T07:09:44.145Z,66.2857
2022-11-30T07:10:44.167Z,66.2143
2022-11-30T07:11:44.199Z,66.1429
2022-11-30T07:12:44.236Z,66.1429
2022-11-30T07:13:44.270Z,66.0714
2022-11-30T07:14:44.431Z,66
2022-11-30T07:15:44.336Z,66
2022-11-30T07:16:44.410Z,66.1429
2022-11-30T07:17:44.392Z,66.2143
2022-11-30T07:18:44.428Z,66.2857
2022-11-30T07:19:44.460Z,66.1429
2022-11-30T07:20:44.483Z,66.0714
2022-11-30T07:21:44.522Z,66.0714
2022-11-30T07:22:44.557Z,66.0714
2022-11-30T07:23:44.584Z,65.9286
2022-11-30T07:24:44.776Z,65.9286
2022-11-30T07:25:44.638Z,65.9286
2022-11-30T07:26:44.677Z,66
2022-11-30T07:27:44.708Z,66.0714
2022-11-30T07:28:44.744Z,66.1429
2022-11-30T07:29:44.778Z,66.0714
2022-11-30T07:30:44.812Z,66.1429
2022-11-30T07:31:44.880Z,66.2857
2022-11-30T07:32:44.897Z,66.2143
2022-11-30T07:33:44.943Z,66.1429
2022-11-30T07:34:45.143Z,66
2022-11-30T07:35:44.980Z,66.0714
2022-11-30T07:36:45.010Z,66.0714
2022-11-30T07:37:45.034Z,65.8571
2022-11-30T07:38:45.057Z,65.8571
2022-11-30T07:39:45.082Z,65.8571
2022-11-30T07:40:45.110Z,65.9286
2022-11-30T07:41:45.149Z,66
2022-11-30T07:42:45.190Z,66
2022-11-30T07:43:45.219Z,66.0714
2022-11-30T07:44:45.652Z,66.0714
2022-11-30T07:45:45.287Z,66.1429
2022-11-30T07:46:45.296Z,66.1429
2022-11-30T07:47:45.330Z,65.9286
2022-11-30T07:48:45.362Z,66.0714
2022-11-30T07:49:45.398Z,66.0714
2022-11-30T07:50:45.423Z,66
2022-11-30T07:51:45.462Z,66.0714
2022-11-30T07:52:45.488Z,66.1429
2022-11-30T07:53:45.526Z,66.0714
2022-11-30T07:54:46.038Z,66
2022-11-30T07:55:45.592Z,65.9286
2022-11-30T07:56:45.616Z,65.9286
2022-11-30T07:57:45.658Z,65.7857
2022-11-30T07:58:45.713Z,65.9286
2022-11-30T07:59:46.312Z,65.9286
2022-11-30T08:00:45.772Z,65.7857
2022-11-30T08:01:45.957Z,65.9286
2022-11-30T08:02:45.802Z,66.0714
2022-11-30T08:03:45.835Z,66.0714
2022-11-30T08:04:46.259Z,65.9286
2022-11-30T08:05:45.892Z,65.8571
2022-11-30T08:06:45.909Z,65.7857
2022-11-30T08:07:46.009Z,65.7857
2022-11-30T08:08:45.970Z,65.7143
2022-11-30T08:09:45.996Z,65.6429
2022-11-30T08:10:46.035Z,65.7143
2022-11-30T08:11:46.076Z,65.7143
2022-11-30T08:12:46.103Z,65.7143
2022-11-30T08:13:46.137Z,65.5714
2022-11-30T08:15:18.318Z,65.4286
2022-11-30T08:15:46.195Z,65.2857
2022-11-30T08:16:46.260Z,65.3571
2022-11-30T08:17:46.252Z,65.4286
2022-11-30T08:18:46.293Z,65.2857
2022-11-30T08:19:46.325Z,65.2857
2022-11-30T08:20:50.033Z,65.2857
2022-11-30T08:21:46.382Z,65.2857
2022-11-30T08:22:46.419Z,65.2143
2022-11-30T08:23:46.489Z,65.0714
2022-11-30T08:24:46.568Z,65
2022-11-30T08:25:46.495Z,65
2022-11-30T08:26:46.537Z,65
2022-11-30T08:27:46.570Z,64.9286
2022-11-30T08:28:46.603Z,65.2143
2022-11-30T08:29:46.663Z,65.1429
2022-11-30T08:30:46.726Z,65
2022-11-30T08:31:46.687Z,65.1429
2022-11-30T08:32:46.729Z,65.1429
2022-11-30T08:33:46.759Z,65.1429
2022-11-30T08:34:47.177Z,65.2143
2022-11-30T08:35:46.816Z,65.3571
2022-11-30T08:36:47.228Z,65.1429
2022-11-30T08:37:46.882Z,65
2022-11-30T08:38:46.921Z,65
2022-11-30T08:39:46.952Z,64.8571
2022-11-30T08:40:46.985Z,65
2022-11-30T08:41:47.022Z,65.0714
2022-11-30T08:42:47.051Z,65
2022-11-30T08:43:47.087Z,64.7143
2022-11-30T08:44:47.113Z,64.9286
2022-11-30T08:45:47.209Z,64.8571
2022-11-30T08:46:52.175Z,64.7857
2022-11-30T08:47:47.202Z,64.9286
2022-11-30T08:48:47.228Z,64.7143
2022-11-30T08:49:47.260Z,64.5714
2022-11-30T08:50:47.282Z,64.5
2022-11-30T08:52:15.913Z,64.4286
2022-11-30T08:52:47.346Z,64.4286
2022-11-30T08:53:47.378Z,64.4286
2022-11-30T08:54:47.969Z,64.2143
2022-11-30T08:55:47.438Z,64.1429
2022-11-30T08:56:47.467Z,64.2143
2022-11-30T08:57:47.499Z,64.2143
2022-11-30T08:58:47.527Z,64.2857
2022-11-30T08:59:47.560Z,64.2857
2022-11-30T09:00:47.587Z,63.9286
2022-11-30T09:01:47.624Z,63.7143
2022-11-30T09:02:47.754Z,63.9286
2022-11-30T09:03:47.693Z,63.8571
2022-11-30T09:04:47.728Z,64.1429
2022-11-30T09:05:47.758Z,63.7857
2022-11-30T09:06:47.794Z,63.5
2022-11-30T09:07:47.883Z,63.5
2022-11-30T09:08:47.848Z,63.7857
2022-11-30T09:09:47.880Z,63.6429
2022-11-30T09:10:47.915Z,63.7857
2022-11-30T09:11:47.937Z,63.7857
2022-11-30T09:12:47.964Z,63.4286
2022-11-30T09:13:47.997Z,63.4286
2022-11-30T09:14:52.337Z,63.5714
2022-11-30T09:15:48.096Z,63.5
2022-11-30T09:16:48.087Z,63.2143
2022-11-30T09:17:48.108Z,63.0714
2022-11-30T09:18:48.139Z,63.2143
2022-11-30T09:19:48.166Z,63.0714
2022-11-30T09:20:48.197Z,62.8571
2022-11-30T09:21:51.523Z,62.9286
2022-11-30T09:22:48.263Z,63.0714
2022-11-30T09:23:48.290Z,63.0714
2022-11-30T09:24:48.622Z,63.3571
2022-11-30T09:25:48.347Z,63.3571
2022-11-30T09:26:48.370Z,63.2143
2022-11-30T09:27:48.397Z,63
2022-11-30T09:28:48.435Z,62.5
2022-11-30T09:29:48.468Z,62.3571
2022-11-30T09:30:48.538Z,62.5
2022-11-30T09:31:48.532Z,62.5
2022-11-30T09:32:48.562Z,62.5
2022-11-30T09:33:48.598Z,62.5
2022-11-30T09:34:50.769Z,62.2143
2022-11-30T09:35:48.659Z,62.2143
2022-11-30T09:36:48.694Z,62.2143
2022-11-30T09:37:48.729Z,62.3571
2022-11-30T09:38:48.770Z,61.8571
2022-11-30T09:39:48.781Z,62.1429
2022-11-30T09:40:48.807Z,62
2022-11-30T09:41:48.842Z,61.8571
2022-11-30T09:42:48.878Z,61.7857
2022-11-30T09:43:48.901Z,61.9286
2022-11-30T09:44:49.397Z,61.9286
2022-11-30T09:45:49.014Z,62.2143
2022-11-30T09:46:48.996Z,62.0714
2022-11-30T09:47:49.032Z,61.7857
2022-11-30T09:48:49.071Z,61.7857
2022-11-30T09:49:49.093Z,61.9286
2022-11-30T09:50:49.131Z,61.6429
2022-11-30T09:51:49.164Z,61.2857
2022-11-30T09:52:49.191Z,61.7143
2022-11-30T09:53:49.218Z,61.3571
2022-11-30T09:54:49.653Z,61.2143
2022-11-30T09:55:49.279Z,61.0714
2022-11-30T09:56:49.310Z,61.4286
2022-11-30T09:57:49.344Z,61.2143
2022-11-30T09:58:49.365Z,61.2143
2022-11-30T09:59:49.394Z,61.2143
2022-11-30T10:00:49.420Z,61
2022-11-30T10:01:56.418Z,60.7857
2022-11-30T10:02:49.634Z,60.9286
2022-11-30T10:03:49.511Z,60.7857
2022-11-30T10:04:49.867Z,60.7143
2022-11-30T10:05:49.578Z,60.9286
2022-11-30T10:06:49.604Z,60.7143
2022-11-30T10:07:49.701Z,60.3571
2022-11-30T10:08:51.039Z,60.2857
2022-11-30T10:10:09.316Z,60.2857
2022-11-30T10:10:49.757Z,60.0714
2022-11-30T10:11:49.786Z,60.2857
2022-11-30T10:12:49.821Z,60.2857
2022-11-30T10:13:49.844Z,60.0714
2022-11-30T10:14:50.152Z,60.0714
2022-11-30T10:15:49.971Z,60.2143
2022-11-30T10:16:49.944Z,60
2022-11-30T10:17:49.969Z,60.2857
2022-11-30T10:18:49.999Z,60.2143
2022-11-30T10:19:50.034Z,59.9286
2022-11-30T10:20:50.066Z,59.7857
2022-11-30T10:21:50.091Z,59.7143
2022-11-30T10:22:50.119Z,60.1429
2022-11-30T10:23:50.147Z,59.9286
2022-11-30T10:24:50.318Z,60.0714
2022-11-30T10:25:50.207Z,59.9286
2022-11-30T10:26:50.231Z,59.5714
2022-11-30T10:27:50.263Z,59.6429
2022-11-30T10:28:50.370Z,59.8571
2022-11-30T10:29:50.327Z,59.7857
2022-11-30T10:30:50.427Z,59.8571
2022-11-30T10:31:50.384Z,59.9286
2022-11-30T10:32:50.416Z,59.9286
2022-11-30T10:33:50.456Z,59.9286
2022-11-30T10:34:50.489Z,59.7143
2022-11-30T10:35:50.512Z,59.9286
2022-11-30T10:36:50.540Z,59.6429
2022-11-30T10:37:50.570Z,59.8571
2022-11-30T10:38:50.608Z,59.6429
2022-11-30T10:39:50.648Z,59.2857
2022-11-30T10:40:50.681Z,59
2022-11-30T10:41:50.715Z,58.9286
2022-11-30T10:42:50.750Z,59
2022-11-30T10:43:50.789Z,59.0714
2022-11-30T10:44:51.005Z,59.1429
2022-11-30T10:45:50.849Z,59.2857
2022-11-30T10:46:50.947Z,59.6429
2022-11-30T10:47:50.916Z,59.7143
2022-11-30T10:48:50.949Z,59.7143
2022-11-30T10:49:50.986Z,59.5714
2022-11-30T10:50:51.135Z,59.7857
2022-11-30T10:51:51.046Z,59.8571
2022-11-30T10:52:51.081Z,60
2022-11-30T10:53:51.113Z,59.7143
2022-11-30T10:54:51.143Z,59.5714
2022-11-30T10:55:51.174Z,59.7143
2022-11-30T10:56:51.214Z,59.6429
2022-11-30T10:57:51.244Z,59.4286
2022-11-30T10:58:51.277Z,59.3571
2022-11-30T10:59:51.307Z,59.7857
2022-11-30T11:00:51.339Z,60
2022-11-30T11:01:51.514Z,60.2143
2022-11-30T11:02:51.423Z,59.5
2022-11-30T11:03:51.570Z,59.2143
2022-11-30T11:04:51.465Z,59.6429
2022-11-30T11:05:51.497Z,59.9286
2022-11-30T11:06:51.554Z,60.1429
2022-11-30T11:07:51.637Z,60.0714
2022-11-30T11:08:51.593Z,59.2143
2022-11-30T11:09:51.626Z,58.8571
2022-11-30T11:10:51.732Z,58.7857
2022-11-30T11:11:51.682Z,58.8571
2022-11-30T11:12:51.707Z,59.2143
2022-11-30T11:13:51.735Z,59.2143
2022-11-30T11:14:51.766Z,59.2143
2022-11-30T11:15:51.859Z,59.3571
2022-11-30T11:16:51.845Z,59.0714
2022-11-30T11:17:51.866Z,59.1429
2022-11-30T11:18:51.903Z,59
2022-11-30T11:19:51.943Z,59.1429
2022-11-30T11:20:55.616Z,58.8571
2022-11-30T11:21:51.995Z,58.5714
2022-11-30T11:22:52.031Z,58.7857
2022-11-30T11:23:52.063Z,58.5714
2022-11-30T11:24:52.093Z,58.5714
2022-11-30T11:25:52.132Z,58.7857
2022-11-30T11:26:52.160Z,58.8571
2022-11-30T11:27:52.189Z,59.3571
2022-11-30T11:28:52.222Z,59.3571
2022-11-30T11:29:52.255Z,59.4286
2022-11-30T11:30:52.297Z,59.1429
2022-11-30T11:31:52.326Z,59.3571
2022-11-30T11:32:52.357Z,59.2857
2022-11-30T11:33:52.391Z,59.4286
2022-11-30T11:34:52.430Z,59.2143
2022-11-30T11:35:52.461Z,58.8571
2022-11-30T11:36:52.478Z,58.7143
2022-11-30T11:37:52.512Z,58.8571
2022-11-30T11:38:52.551Z,59.2143
2022-11-30T11:39:52.582Z,59.5714
2022-11-30T11:40:52.615Z,59.7143
2022-11-30T11:41:52.650Z,59.4286
2022-11-30T11:42:52.675Z,59.1429
2022-11-30T11:43:52.710Z,59.2143
2022-11-30T11:44:52.749Z,58.7857
2022-11-30T11:45:52.779Z,58.8571
2022-11-30T11:46:52.873Z,58.6429
2022-11-30T11:47:52.838Z,58.6429
2022-11-30T11:48:52.870Z,58.8571
2022-11-30T11:49:52.905Z,58.9286
2022-11-30T11:51:07.482Z,58.7143
2022-11-30T11:51:52.972Z,58.7143
2022-11-30T11:52:53.005Z,58.7857
2022-11-30T11:53:54.050Z,58.7857
2022-11-30T11:54:53.071Z,58.8571
2022-11-30T11:55:53.107Z,58.9286
2022-11-30T11:56:53.134Z,59.1429
2022-11-30T11:57:53.165Z,58.9286
2022-11-30T11:58:53.200Z,58.8571
2022-11-30T11:59:53.237Z,58.8571
2022-11-30T12:01:10.609Z,59
2022-11-30T12:01:53.317Z,59.2857
2022-11-30T12:02:53.389Z,58.7857
2022-11-30T12:03:53.384Z,59
2022-11-30T12:04:53.381Z,59
2022-11-30T12:05:53.413Z,58.7857
2022-11-30T12:06:53.440Z,58.7143
2022-11-30T12:07:53.588Z,58.8571
2022-11-30T12:08:53.500Z,58.9286
2022-11-30T12:09:53.532Z,59
2022-11-30T12:10:54.036Z,58.9286
2022-11-30T12:11:53.598Z,59.1429
2022-11-30T12:12:55.139Z,59
2022-11-30T12:13:53.661Z,58.7857
2022-11-30T12:14:53.682Z,58.7857
2022-11-30T12:15:53.799Z,58.7143
2022-11-30T12:16:53.744Z,59.1429
2022-11-30T12:17:53.775Z,59.2143
2022-11-30T12:18:53.799Z,59.2857